sensor_id;sensor_type;location;lat;lon;timestamp;pressure;altitude;pressure_sealevel;temperature;humidity
10071;BME280;5074;53.720;10.014;2023-05-23T00:01:40;100907.09;;;15.76;100.00
10071;BME280;5074;53.720;10.014;2023-05-23T00:04:10;100900.16;;;15.72;100.00
10071;BME280;5074;53.720;10.014;2023-05-23T00:06:43;100903.97;;;15.68;100.00
10071;BME280;5074;53.720;10.014;2023-05-23T00:09:16;100892.50;;;15.65;100.00
10071;BME280;5074;53.720;10.014;2023-05-23T00:11:44;100893.06;;;15.54;100.00
10071;BME280;5074;53.720;10.014;2023-05-23T00:14:13;100878.09;;;15.48;100.00
10071;BME280;5074;53.720;10.014;2023-05-23T00:16:42;100877.06;;;15.51;100.00
10071;BME280;5074;53.720;10.014;2023-05-23T00:19:12;100861.41;;;15.41;100.00
10071;BME280;5074;53.720;10.014;2023-05-23T00:21:42;100874.47;;;15.49;100.00
10071;BME280;5074;53.720;10.014;2023-05-23T00:24:11;100868.53;;;15.42;100.00
10071;BME280;5074;53.720;10.014;2023-05-23T00:26:40;100868.69;;;15.39;100.00
10071;BME280;5074;53.720;10.014;2023-05-23T00:29:08;100860.78;;;15.36;100.00
10071;BME280;5074;53.720;10.014;2023-05-23T00:31:55;100867.38;;;15.31;100.00
10071;BME280;5074;53.720;10.014;2023-05-23T00:37:32;100864.06;;;15.25;100.00
10071;BME280;5074;53.720;10.014;2023-05-23T00:40:00;100870.56;;;15.21;100.00
10071;BME280;5074;53.720;10.014;2023-05-23T00:42:28;100872.13;;;15.25;100.00
10071;BME280;5074;53.720;10.014;2023-05-23T00:45:07;100869.44;;;15.25;100.00
10071;BME280;5074;53.720;10.014;2023-05-23T00:47:44;100866.84;;;15.24;100.00
10071;BME280;5074;53.720;10.014;2023-05-23T00:50:17;100865.69;;;15.28;100.00
10071;BME280;5074;53.720;10.014;2023-05-23T00:52:47;100867.78;;;15.23;100.00
10071;BME280;5074;53.720;10.014;2023-05-23T00:55:16;100867.78;;;15.23;100.00
10071;BME280;5074;53.720;10.014;2023-05-23T00:57:44;100867.63;;;15.26;100.00
10071;BME280;5074;53.720;10.014;2023-05-23T01:00:14;100868.03;;;15.18;100.00
10071;BME280;5074;53.720;10.014;2023-05-23T01:02:44;100860.25;;;15.12;100.00
10071;BME280;5074;53.720;10.014;2023-05-23T01:05:14;100858.72;;;15.08;100.00
10071;BME280;5074;53.720;10.014;2023-05-23T01:07:45;100853.53;;;15.03;100.00
10071;BME280;5074;53.720;10.014;2023-05-23T01:10:15;100821.28;;;14.86;100.00
10071;BME280;5074;53.720;10.014;2023-05-23T01:12:53;100848.25;;;15.02;100.00
10071;BME280;5074;53.720;10.014;2023-05-23T01:15:28;100849.50;;;14.94;100.00
10071;BME280;5074;53.720;10.014;2023-05-23T01:18:01;100846.91;;;14.93;100.00
10071;BME280;5074;53.720;10.014;2023-05-23T01:20:38;100844.28;;;14.91;100.00
10071;BME280;5074;53.720;10.014;2023-05-23T01:26:42;100840.03;;;14.87;100.00
10071;BME280;5074;53.720;10.014;2023-05-23T01:29:24;100819.94;;;14.77;100.00
10071;BME280;5074;53.720;10.014;2023-05-23T01:32:00;100827.47;;;14.88;100.00
10071;BME280;5074;53.720;10.014;2023-05-23T01:34:30;100830.94;;;14.90;100.00
10071;BME280;5074;53.720;10.014;2023-05-23T01:37:10;100830.16;;;14.88;100.00
10071;BME280;5074;53.720;10.014;2023-05-23T01:39:52;100831.78;;;14.90;100.00
10071;BME280;5074;53.720;10.014;2023-05-23T01:42:23;100821.75;;;14.94;100.00
10071;BME280;5074;53.720;10.014;2023-05-23T01:45:01;100822.53;;;14.96;100.00
10071;BME280;5074;53.720;10.014;2023-05-23T01:47:30;100826.72;;;15.02;100.00
10071;BME280;5074;53.720;10.014;2023-05-23T01:50:01;100818.38;;;15.06;100.00
10071;BME280;5074;53.720;10.014;2023-05-23T01:52:31;100821.63;;;15.13;100.00
10071;BME280;5074;53.720;10.014;2023-05-23T01:55:00;100829.00;;;15.09;100.00
10071;BME280;5074;53.720;10.014;2023-05-23T01:57:54;100822.66;;;15.10;100.00
10071;BME280;5074;53.720;10.014;2023-05-23T02:00:30;100819.03;;;15.11;100.00
10071;BME280;5074;53.720;10.014;2023-05-23T02:02:58;100823.38;;;15.14;100.00
10071;BME280;5074;53.720;10.014;2023-05-23T02:05:40;100827.66;;;15.18;100.00
10071;BME280;5074;53.720;10.014;2023-05-23T02:08:08;100821.28;;;15.19;100.00
10071;BME280;5074;53.720;10.014;2023-05-23T02:10:41;100820.09;;;15.25;100.00
10071;BME280;5074;53.720;10.014;2023-05-23T02:13:13;100824.88;;;15.20;100.00
10071;BME280;5074;53.720;10.014;2023-05-23T02:15:49;100823.03;;;15.20;100.00
10071;BME280;5074;53.720;10.014;2023-05-23T02:18:23;100834.63;;;15.22;100.00
10071;BME280;5074;53.720;10.014;2023-05-23T02:21:07;100826.19;;;15.28;100.00
10071;BME280;5074;53.720;10.014;2023-05-23T02:23:48;100824.09;;;15.34;100.00
10071;BME280;5074;53.720;10.014;2023-05-23T02:26:23;100821.34;;;15.35;100.00
10071;BME280;5074;53.720;10.014;2023-05-23T02:29:02;100825.78;;;15.36;100.00
10071;BME280;5074;53.720;10.014;2023-05-23T02:31:37;100824.84;;;15.37;100.00
10071;BME280;5074;53.720;10.014;2023-05-23T02:34:05;100836.59;;;15.19;100.00
10071;BME280;5074;53.720;10.014;2023-05-23T02:36:46;100833.13;;;15.17;100.00
10071;BME280;5074;53.720;10.014;2023-05-23T02:39:14;100837.72;;;14.97;100.00
10071;BME280;5074;53.720;10.014;2023-05-23T02:42:02;100840.59;;;14.76;100.00
10071;BME280;5074;53.720;10.014;2023-05-23T02:44:45;100836.94;;;14.77;100.00
10071;BME280;5074;53.720;10.014;2023-05-23T02:47:18;100838.75;;;14.77;100.00
10071;BME280;5074;53.720;10.014;2023-05-23T02:49:46;100837.91;;;14.76;100.00
10071;BME280;5074;53.720;10.014;2023-05-23T02:52:21;100834.31;;;14.76;100.00
10071;BME280;5074;53.720;10.014;2023-05-23T02:54:54;100847.41;;;14.66;100.00
10071;BME280;5074;53.720;10.014;2023-05-23T02:57:22;100845.56;;;14.67;100.00
10071;BME280;5074;53.720;10.014;2023-05-23T02:59:58;100841.41;;;14.59;100.00
10071;BME280;5074;53.720;10.014;2023-05-23T03:02:29;100845.69;;;14.46;100.00
10071;BME280;5074;53.720;10.014;2023-05-23T03:05:10;100845.75;;;14.45;100.00
10071;BME280;5074;53.720;10.014;2023-05-23T03:07:40;100849.63;;;14.39;100.00
10071;BME280;5074;53.720;10.014;2023-05-23T03:10:10;100852.47;;;14.36;100.00
10071;BME280;5074;53.720;10.014;2023-05-23T03:12:38;100849.75;;;14.18;100.00
10071;BME280;5074;53.720;10.014;2023-05-23T03:15:07;100848.59;;;14.05;100.00
10071;BME280;5074;53.720;10.014;2023-05-23T03:17:36;100819.56;;;13.94;100.00
10071;BME280;5074;53.720;10.014;2023-05-23T03:20:05;100848.94;;;14.16;100.00
10071;BME280;5074;53.720;10.014;2023-05-23T03:22:36;100849.09;;;14.13;100.00
10071;BME280;5074;53.720;10.014;2023-05-23T03:25:10;100846.03;;;14.21;100.00
10071;BME280;5074;53.720;10.014;2023-05-23T03:27:40;100847.34;;;14.12;100.00
10071;BME280;5074;53.720;10.014;2023-05-23T03:30:08;100852.63;;;14.14;100.00
10071;BME280;5074;53.720;10.014;2023-05-23T03:32:39;100853.88;;;14.06;100.00
10071;BME280;5074;53.720;10.014;2023-05-23T03:35:07;100850.72;;;13.98;100.00
10071;BME280;5074;53.720;10.014;2023-05-23T03:37:36;100846.13;;;14.00;100.00
10071;BME280;5074;53.720;10.014;2023-05-23T03:40:05;100847.28;;;13.95;100.00
10071;BME280;5074;53.720;10.014;2023-05-23T03:42:35;100851.66;;;13.97;100.00
10071;BME280;5074;53.720;10.014;2023-05-23T03:45:04;100845.41;;;13.97;100.00
10071;BME280;5074;53.720;10.014;2023-05-23T03:47:32;100844.91;;;13.88;100.00
10071;BME280;5074;53.720;10.014;2023-05-23T03:50:04;100839.91;;;14.00;100.00
10071;BME280;5074;53.720;10.014;2023-05-23T03:52:37;100843.00;;;13.90;100.00
10071;BME280;5074;53.720;10.014;2023-05-23T03:55:05;100842.56;;;13.81;100.00
10071;BME280;5074;53.720;10.014;2023-05-23T03:57:35;100847.22;;;13.77;100.00
10071;BME280;5074;53.720;10.014;2023-05-23T04:00:03;100848.84;;;13.81;100.00
10071;BME280;5074;53.720;10.014;2023-05-23T04:02:34;100849.47;;;13.86;100.00
10071;BME280;5074;53.720;10.014;2023-05-23T04:05:04;100844.25;;;13.83;100.00
10071;BME280;5074;53.720;10.014;2023-05-23T04:07:32;100846.50;;;13.73;100.00
10071;BME280;5074;53.720;10.014;2023-05-23T04:10:02;100853.47;;;13.78;100.00
10071;BME280;5074;53.720;10.014;2023-05-23T04:12:30;100853.13;;;13.85;100.00
10071;BME280;5074;53.720;10.014;2023-05-23T04:14:58;100859.06;;;13.92;100.00
10071;BME280;5074;53.720;10.014;2023-05-23T04:17:26;100853.53;;;13.95;100.00
10071;BME280;5074;53.720;10.014;2023-05-23T04:19:56;100858.50;;;13.85;100.00
10071;BME280;5074;53.720;10.014;2023-05-23T04:22:26;100863.19;;;13.80;100.00
10071;BME280;5074;53.720;10.014;2023-05-23T04:24:54;100871.69;;;13.90;100.00
10071;BME280;5074;53.720;10.014;2023-05-23T04:27:22;100869.25;;;13.85;100.00
10071;BME280;5074;53.720;10.014;2023-05-23T04:29:51;100875.69;;;13.81;100.00
10071;BME280;5074;53.720;10.014;2023-05-23T04:32:19;100873.31;;;13.75;100.00
10071;BME280;5074;53.720;10.014;2023-05-23T04:34:48;100879.63;;;13.74;100.00
10071;BME280;5074;53.720;10.014;2023-05-23T04:37:17;100876.94;;;13.74;100.00
10071;BME280;5074;53.720;10.014;2023-05-23T04:39:49;100874.72;;;13.63;100.00
10071;BME280;5074;53.720;10.014;2023-05-23T04:42:17;100876.34;;;13.67;100.00
10071;BME280;5074;53.720;10.014;2023-05-23T04:44:50;100868.19;;;13.69;100.00
10071;BME280;5074;53.720;10.014;2023-05-23T04:47:18;100877.16;;;13.69;100.00
10071;BME280;5074;53.720;10.014;2023-05-23T04:49:46;100867.19;;;13.52;100.00
10071;BME280;5074;53.720;10.014;2023-05-23T04:52:15;100865.13;;;13.58;100.00
10071;BME280;5074;53.720;10.014;2023-05-23T04:54:44;100865.34;;;13.53;100.00
10071;BME280;5074;53.720;10.014;2023-05-23T04:57:16;100872.75;;;13.48;100.00
10071;BME280;5074;53.720;10.014;2023-05-23T04:59:44;100874.16;;;13.36;100.00
10071;BME280;5074;53.720;10.014;2023-05-23T05:02:12;100866.56;;;13.46;100.00
10071;BME280;5074;53.720;10.014;2023-05-23T05:04:40;100869.25;;;13.46;100.00
10071;BME280;5074;53.720;10.014;2023-05-23T05:07:08;100872.38;;;13.36;100.00
10071;BME280;5074;53.720;10.014;2023-05-23T05:09:36;100864.19;;;13.40;100.00
10071;BME280;5074;53.720;10.014;2023-05-23T05:12:05;100868.97;;;13.31;100.00
10071;BME280;5074;53.720;10.014;2023-05-23T05:14:34;100870.72;;;13.32;100.00
10071;BME280;5074;53.720;10.014;2023-05-23T05:17:02;100873.56;;;13.29;100.00
10071;BME280;5074;53.720;10.014;2023-05-23T05:19:31;100874.50;;;13.28;100.00
10071;BME280;5074;53.720;10.014;2023-05-23T05:21:59;100880.69;;;13.30;100.00
10071;BME280;5074;53.720;10.014;2023-05-23T05:24:27;100881.47;;;13.32;100.00
10071;BME280;5074;53.720;10.014;2023-05-23T05:26:55;100874.78;;;13.22;100.00
10071;BME280;5074;53.720;10.014;2023-05-23T05:29:23;100870.13;;;13.26;100.00
10071;BME280;5074;53.720;10.014;2023-05-23T05:31:53;100880.00;;;13.25;100.00
10071;BME280;5074;53.720;10.014;2023-05-23T05:34:21;100874.16;;;13.36;100.00
10071;BME280;5074;53.720;10.014;2023-05-23T05:36:50;100875.72;;;13.42;100.00
10071;BME280;5074;53.720;10.014;2023-05-23T05:39:23;100880.63;;;13.32;100.00
10071;BME280;5074;53.720;10.014;2023-05-23T05:41:51;100874.00;;;13.41;100.00
10071;BME280;5074;53.720;10.014;2023-05-23T05:44:19;100881.00;;;13.43;100.00
10071;BME280;5074;53.720;10.014;2023-05-23T05:46:47;100890.81;;;13.44;100.00
10071;BME280;5074;53.720;10.014;2023-05-23T05:49:17;100896.31;;;13.41;100.00
10071;BME280;5074;53.720;10.014;2023-05-23T05:51:45;100892.03;;;13.37;100.00
10071;BME280;5074;53.720;10.014;2023-05-23T05:54:13;100898.59;;;13.30;100.00
10071;BME280;5074;53.720;10.014;2023-05-23T05:56:46;100901.19;;;13.31;100.00
10071;BME280;5074;53.720;10.014;2023-05-23T05:59:14;100896.78;;;13.30;100.00
10071;BME280;5074;53.720;10.014;2023-05-23T06:01:42;100899.34;;;13.33;100.00
10071;BME280;5074;53.720;10.014;2023-05-23T06:04:11;100904.69;;;13.33;100.00
10071;BME280;5074;53.720;10.014;2023-05-23T06:06:41;100910.06;;;13.33;100.00
10071;BME280;5074;53.720;10.014;2023-05-23T06:09:09;100911.81;;;13.34;100.00
10071;BME280;5074;53.720;10.014;2023-05-23T06:11:37;100912.66;;;13.36;100.00
10071;BME280;5074;53.720;10.014;2023-05-23T06:14:07;100909.19;;;13.33;100.00
10071;BME280;5074;53.720;10.014;2023-05-23T06:16:35;100916.31;;;13.34;100.00
10071;BME280;5074;53.720;10.014;2023-05-23T06:19:04;100914.53;;;13.33;100.00
10071;BME280;5074;53.720;10.014;2023-05-23T06:21:32;100928.75;;;13.36;100.00
10071;BME280;5074;53.720;10.014;2023-05-23T06:24:01;100924.16;;;13.38;100.00
10071;BME280;5074;53.720;10.014;2023-05-23T06:26:29;100928.53;;;13.41;100.00
10071;BME280;5074;53.720;10.014;2023-05-23T06:28:57;100923.25;;;13.40;100.00
10071;BME280;5074;53.720;10.014;2023-05-23T06:31:25;100926.66;;;13.43;100.00
10071;BME280;5074;53.720;10.014;2023-05-23T06:33:54;100925.94;;;13.40;100.00
10071;BME280;5074;53.720;10.014;2023-05-23T06:36:22;100925.50;;;13.49;100.00
10071;BME280;5074;53.720;10.014;2023-05-23T06:38:50;100932.41;;;13.54;100.00
10071;BME280;5074;53.720;10.014;2023-05-23T06:41:19;100935.44;;;13.47;100.00
10071;BME280;5074;53.720;10.014;2023-05-23T06:43:48;100936.84;;;13.55;100.00
10071;BME280;5074;53.720;10.014;2023-05-23T06:46:16;100945.66;;;13.59;100.00
10071;BME280;5074;53.720;10.014;2023-05-23T06:48:44;100940.41;;;13.56;100.00
10071;BME280;5074;53.720;10.014;2023-05-23T06:51:12;100949.59;;;13.50;100.00
10071;BME280;5074;53.720;10.014;2023-05-23T06:53:40;100944.38;;;13.47;100.00
10071;BME280;5074;53.720;10.014;2023-05-23T06:56:09;100960.38;;;13.28;100.00
10071;BME280;5074;53.720;10.014;2023-05-23T06:58:38;100956.03;;;13.26;100.00
10071;BME280;5074;53.720;10.014;2023-05-23T07:01:07;100956.97;;;13.25;100.00
10071;BME280;5074;53.720;10.014;2023-05-23T07:03:36;100967.44;;;13.10;100.00
10071;BME280;5074;53.720;10.014;2023-05-23T07:06:07;100963.47;;;13.19;100.00
10071;BME280;5074;53.720;10.014;2023-05-23T07:08:35;100969.84;;;13.16;100.00
10071;BME280;5074;53.720;10.014;2023-05-23T07:11:03;100968.28;;;13.11;100.00
10071;BME280;5074;53.720;10.014;2023-05-23T07:13:32;100971.66;;;13.16;100.00
10071;BME280;5074;53.720;10.014;2023-05-23T07:16:02;100952.47;;;13.05;100.00
10071;BME280;5074;53.720;10.014;2023-05-23T07:18:30;100971.00;;;13.31;100.00
10071;BME280;5074;53.720;10.014;2023-05-23T07:20:58;100974.50;;;13.33;100.00
10071;BME280;5074;53.720;10.014;2023-05-23T07:23:26;100975.34;;;13.34;100.00
10071;BME280;5074;53.720;10.014;2023-05-23T07:25:54;100973.72;;;13.52;100.00
10071;BME280;5074;53.720;10.014;2023-05-23T07:28:28;100984.06;;;13.41;100.00
10071;BME280;5074;53.720;10.014;2023-05-23T07:30:56;100979.09;;;13.52;100.00
10071;BME280;5074;53.720;10.014;2023-05-23T07:33:26;100980.97;;;13.50;100.00
10071;BME280;5074;53.720;10.014;2023-05-23T07:35:54;100988.34;;;13.65;100.00
10071;BME280;5074;53.720;10.014;2023-05-23T07:38:22;100986.41;;;13.48;100.00
10071;BME280;5074;53.720;10.014;2023-05-23T07:40:50;100991.16;;;13.62;100.00
10071;BME280;5074;53.720;10.014;2023-05-23T07:43:32;101000.69;;;13.69;100.00
10071;BME280;5074;53.720;10.014;2023-05-23T07:46:00;100993.06;;;13.79;100.00
10071;BME280;5074;53.720;10.014;2023-05-23T07:48:30;101003.25;;;13.72;100.00
10071;BME280;5074;53.720;10.014;2023-05-23T07:50:58;100997.94;;;13.71;100.00
10071;BME280;5074;53.720;10.014;2023-05-23T07:53:27;101005.03;;;13.72;100.00
10071;BME280;5074;53.720;10.014;2023-05-23T07:55:55;101010.16;;;13.78;100.00
10071;BME280;5074;53.720;10.014;2023-05-23T07:58:23;101013.72;;;13.79;100.00
10071;BME280;5074;53.720;10.014;2023-05-23T08:00:51;101014.16;;;13.88;100.00
10071;BME280;5074;53.720;10.014;2023-05-23T08:03:19;101014.38;;;13.84;100.00
10071;BME280;5074;53.720;10.014;2023-05-23T08:05:49;101016.66;;;13.72;100.00
10071;BME280;5074;53.720;10.014;2023-05-23T08:08:17;101019.69;;;13.65;100.00
10071;BME280;5074;53.720;10.014;2023-05-23T08:10:45;101025.13;;;13.63;100.00
10071;BME280;5074;53.720;10.014;2023-05-23T08:13:13;101018.47;;;13.72;100.00
10071;BME280;5074;53.720;10.014;2023-05-23T08:15:42;101027.50;;;13.71;100.00
10071;BME280;5074;53.720;10.014;2023-05-23T08:18:10;101031.97;;;13.70;100.00
10071;BME280;5074;53.720;10.014;2023-05-23T08:20:39;101036.75;;;13.64;100.00
10071;BME280;5074;53.720;10.014;2023-05-23T08:23:09;101033.03;;;13.46;100.00
10071;BME280;5074;53.720;10.014;2023-05-23T08:25:38;101030.38;;;13.66;100.00
10071;BME280;5074;53.720;10.014;2023-05-23T08:28:06;101041.16;;;13.65;100.00
10071;BME280;5074;53.720;10.014;2023-05-23T08:30:34;101049.28;;;13.63;100.00
10071;BME280;5074;53.720;10.014;2023-05-23T08:33:02;101040.66;;;13.57;100.00
10071;BME280;5074;53.720;10.014;2023-05-23T08:35:31;101048.84;;;13.53;100.00
10071;BME280;5074;53.720;10.014;2023-05-23T08:38:04;101051.97;;;13.63;100.00
10071;BME280;5074;53.720;10.014;2023-05-23T08:40:35;101056.22;;;13.48;100.00
10071;BME280;5074;53.720;10.014;2023-05-23T08:43:03;101065.59;;;13.38;100.00
10071;BME280;5074;53.720;10.014;2023-05-23T08:45:31;101058.06;;;13.24;100.00
10071;BME280;5074;53.720;10.014;2023-05-23T08:48:01;101075.63;;;13.11;100.00
10071;BME280;5074;53.720;10.014;2023-05-23T08:50:31;101075.19;;;13.21;100.00
10071;BME280;5074;53.720;10.014;2023-05-23T08:53:00;101077.75;;;13.25;100.00
10071;BME280;5074;53.720;10.014;2023-05-23T08:55:29;101080.06;;;13.12;100.00
10071;BME280;5074;53.720;10.014;2023-05-23T08:57:59;101079.38;;;13.07;100.00
10071;BME280;5074;53.720;10.014;2023-05-23T09:00:27;101088.47;;;13.02;100.00
10071;BME280;5074;53.720;10.014;2023-05-23T09:02:56;101090.84;;;12.88;100.00
10071;BME280;5074;53.720;10.014;2023-05-23T09:05:25;101097.38;;;12.81;100.00
10071;BME280;5074;53.720;10.014;2023-05-23T09:07:53;101097.88;;;12.68;100.00
10071;BME280;5074;53.720;10.014;2023-05-23T09:10:22;101104.66;;;12.55;100.00
10071;BME280;5074;53.720;10.014;2023-05-23T09:12:50;101109.69;;;12.39;100.00
10071;BME280;5074;53.720;10.014;2023-05-23T09:15:20;101113.94;;;12.45;100.00
10071;BME280;5074;53.720;10.014;2023-05-23T09:17:49;101120.78;;;12.30;100.00
10071;BME280;5074;53.720;10.014;2023-05-23T09:20:18;101130.56;;;12.06;100.00
10071;BME280;5074;53.720;10.014;2023-05-23T09:22:47;101136.97;;;12.02;100.00
10071;BME280;5074;53.720;10.014;2023-05-23T09:25:15;101139.22;;;12.14;100.00
10071;BME280;5074;53.720;10.014;2023-05-23T09:27:43;101144.13;;;12.01;100.00
10071;BME280;5074;53.720;10.014;2023-05-23T09:30:14;101145.03;;;12.00;100.00
10071;BME280;5074;53.720;10.014;2023-05-23T09:32:57;101147.91;;;11.95;100.00
10071;BME280;5074;53.720;10.014;2023-05-23T09:35:31;101156.28;;;11.85;100.00
10071;BME280;5074;53.720;10.014;2023-05-23T09:37:59;101146.81;;;12.01;100.00
10071;BME280;5074;53.720;10.014;2023-05-23T09:40:30;101150.53;;;11.97;100.00
10071;BME280;5074;53.720;10.014;2023-05-23T09:43:02;101151.06;;;11.80;100.00
10071;BME280;5074;53.720;10.014;2023-05-23T09:45:31;101160.22;;;11.73;100.00
10071;BME280;5074;53.720;10.014;2023-05-23T09:48:01;101156.00;;;11.67;100.00
10071;BME280;5074;53.720;10.014;2023-05-23T09:50:31;101178.16;;;11.71;100.00
10071;BME280;5074;53.720;10.014;2023-05-23T09:53:00;101168.78;;;11.84;100.00
10071;BME280;5074;53.720;10.014;2023-05-23T09:55:28;101174.19;;;11.82;100.00
10071;BME280;5074;53.720;10.014;2023-05-23T09:57:58;101176.34;;;11.71;100.00
10071;BME280;5074;53.720;10.014;2023-05-23T10:00:26;101176.28;;;11.73;100.00
10071;BME280;5074;53.720;10.014;2023-05-23T10:03:06;101174.47;;;11.75;100.00
10071;BME280;5074;53.720;10.014;2023-05-23T10:05:43;101181.00;;;11.66;100.00
10071;BME280;5074;53.720;10.014;2023-05-23T10:08:24;101187.53;;;11.84;100.00
10071;BME280;5074;53.720;10.014;2023-05-23T10:14:28;101185.97;;;11.77;100.00
10071;BME280;5074;53.720;10.014;2023-05-23T10:17:02;101182.34;;;11.79;100.00
10071;BME280;5074;53.720;10.014;2023-05-23T10:19:39;101188.13;;;11.65;100.00
10071;BME280;5074;53.720;10.014;2023-05-23T10:22:11;101199.38;;;11.50;100.00
10071;BME280;5074;53.720;10.014;2023-05-23T10:24:40;101190.78;;;11.67;100.00
10071;BME280;5074;53.720;10.014;2023-05-23T10:27:10;101199.09;;;11.86;100.00
10071;BME280;5074;53.720;10.014;2023-05-23T10:29:38;101206.16;;;11.87;100.00
10071;BME280;5074;53.720;10.014;2023-05-23T10:32:07;101206.66;;;11.73;100.00
10071;BME280;5074;53.720;10.014;2023-05-23T10:34:43;101211.09;;;11.73;100.00
10071;BME280;5074;53.720;10.014;2023-05-23T10:37:17;101217.09;;;11.81;100.00
10071;BME280;5074;53.720;10.014;2023-05-23T10:39:54;101223.28;;;11.83;100.00
10071;BME280;5074;53.720;10.014;2023-05-23T10:42:33;101225.72;;;11.91;100.00
10071;BME280;5074;53.720;10.014;2023-05-23T10:45:19;101225.34;;;12.03;100.00
10071;BME280;5074;53.720;10.014;2023-05-23T10:47:48;101227.59;;;11.87;100.00
10071;BME280;5074;53.720;10.014;2023-05-23T10:50:32;101227.75;;;11.82;100.00
10071;BME280;5074;53.720;10.014;2023-05-23T10:53:01;101242.75;;;11.88;100.00
10071;BME280;5074;53.720;10.014;2023-05-23T10:55:31;101234.88;;;11.84;100.00
10071;BME280;5074;53.720;10.014;2023-05-23T10:58:09;101236.81;;;12.07;100.00
10071;BME280;5074;53.720;10.014;2023-05-23T11:00:38;101235.09;;;12.04;100.00
10071;BME280;5074;53.720;10.014;2023-05-23T11:03:07;101245.59;;;12.12;100.00
10071;BME280;5074;53.720;10.014;2023-05-23T11:05:46;101250.66;;;12.20;100.00
10071;BME280;5074;53.720;10.014;2023-05-23T11:08:15;101240.28;;;12.36;100.00
10071;BME280;5074;53.720;10.014;2023-05-23T11:11:01;101251.94;;;12.34;100.00
10071;BME280;5074;53.720;10.014;2023-05-23T11:13:58;101245.38;;;12.43;100.00
10071;BME280;5074;53.720;10.014;2023-05-23T11:16:30;101237.69;;;12.58;100.00
10071;BME280;5074;53.720;10.014;2023-05-23T11:19:19;101249.34;;;13.06;100.00
10071;BME280;5074;53.720;10.014;2023-05-23T11:21:52;101251.13;;;13.30;100.00
10071;BME280;5074;53.720;10.014;2023-05-23T11:24:21;101264.31;;;13.36;100.00
10071;BME280;5074;53.720;10.014;2023-05-23T11:26:54;101265.06;;;12.93;100.00
10071;BME280;5074;53.720;10.014;2023-05-23T11:29:26;101264.00;;;12.97;100.00
10071;BME280;5074;53.720;10.014;2023-05-23T11:31:55;101262.00;;;13.26;100.00
10071;BME280;5074;53.720;10.014;2023-05-23T11:34:24;101262.44;;;13.38;100.00
10071;BME280;5074;53.720;10.014;2023-05-23T11:36:54;101257.59;;;13.48;100.00
10071;BME280;5074;53.720;10.014;2023-05-23T11:39:23;101261.63;;;13.82;100.00
10071;BME280;5074;53.720;10.014;2023-05-23T11:42:01;101263.66;;;13.98;100.00
10071;BME280;5074;53.720;10.014;2023-05-23T11:44:29;101259.47;;;14.13;100.00
10071;BME280;5074;53.720;10.014;2023-05-23T11:46:58;101260.81;;;14.23;100.00
10071;BME280;5074;53.720;10.014;2023-05-23T11:49:28;101265.28;;;14.02;100.00
10071;BME280;5074;53.720;10.014;2023-05-23T11:51:58;101271.72;;;13.76;100.00
10071;BME280;5074;53.720;10.014;2023-05-23T11:54:28;101275.41;;;13.73;100.00
10071;BME280;5074;53.720;10.014;2023-05-23T11:56:56;101279.19;;;13.45;100.00
10071;BME280;5074;53.720;10.014;2023-05-23T11:59:25;101276.31;;;13.50;100.00
10071;BME280;5074;53.720;10.014;2023-05-23T12:01:54;101277.03;;;13.55;100.00
10071;BME280;5074;53.720;10.014;2023-05-23T12:04:24;101278.75;;;13.56;100.00
10071;BME280;5074;53.720;10.014;2023-05-23T12:06:53;101290.84;;;13.68;100.00
10071;BME280;5074;53.720;10.014;2023-05-23T12:09:23;101278.97;;;13.73;100.00
10071;BME280;5074;53.720;10.014;2023-05-23T12:11:51;101284.31;;;13.75;100.00
10071;BME280;5074;53.720;10.014;2023-05-23T12:14:19;101287.53;;;13.83;100.00
10071;BME280;5074;53.720;10.014;2023-05-23T12:16:47;101294.66;;;13.62;100.00
10071;BME280;5074;53.720;10.014;2023-05-23T12:19:16;101298.84;;;13.69;100.00
10071;BME280;5074;53.720;10.014;2023-05-23T12:21:46;101281.91;;;14.32;100.00
10071;BME280;5074;53.720;10.014;2023-05-23T12:24:15;101283.34;;;14.63;100.00
10071;BME280;5074;53.720;10.014;2023-05-23T12:26:51;101301.19;;;14.64;100.00
10071;BME280;5074;53.720;10.014;2023-05-23T12:29:20;101291.13;;;14.69;100.00
10071;BME280;5074;53.720;10.014;2023-05-23T12:31:49;101290.75;;;14.98;100.00
10071;BME280;5074;53.720;10.014;2023-05-23T12:34:21;101287.44;;;14.72;100.00
10071;BME280;5074;53.720;10.014;2023-05-23T12:36:49;101298.53;;;14.21;100.00
10071;BME280;5074;53.720;10.014;2023-05-23T12:39:36;101296.66;;;14.44;100.00
10071;BME280;5074;53.720;10.014;2023-05-23T12:42:09;101318.84;;;14.49;100.00
10071;BME280;5074;53.720;10.014;2023-05-23T12:44:39;101308.25;;;14.24;100.00
10071;BME280;5074;53.720;10.014;2023-05-23T12:47:08;101311.19;;;14.18;100.00
10071;BME280;5074;53.720;10.014;2023-05-23T12:49:36;101306.59;;;14.21;100.00
10071;BME280;5074;53.720;10.014;2023-05-23T12:52:05;101325.97;;;13.85;100.00
10071;BME280;5074;53.720;10.014;2023-05-23T12:54:33;101319.44;;;13.69;100.00
10071;BME280;5074;53.720;10.014;2023-05-23T12:57:01;101321.91;;;13.51;100.00
10071;BME280;5074;53.720;10.014;2023-05-23T12:59:30;101319.22;;;13.51;100.00
10071;BME280;5074;53.720;10.014;2023-05-23T13:01:59;101322.25;;;13.66;100.00
10071;BME280;5074;53.720;10.014;2023-05-23T13:04:28;101325.69;;;14.14;100.00
10071;BME280;5074;53.720;10.014;2023-05-23T13:06:58;101326.97;;;13.83;100.00
10071;BME280;5074;53.720;10.014;2023-05-23T13:09:26;101333.94;;;14.31;100.00